sensor_id;sensor_type;location;lat;lon;timestamp;P1;durP1;ratioP1;P2;durP2;ratioP2
20870;SDS011;10595;51.218;3.452;2022-11-04T00:01:19;7.40;;;3.40;;
20870;SDS011;10595;51.218;3.452;2022-11-04T00:03:45;7.57;;;3.80;;
20870;SDS011;10595;51.218;3.452;2022-11-04T00:06:11;14.70;;;3.97;;
20870;SDS011;10595;51.218;3.452;2022-11-04T00:08:37;7.80;;;3.50;;
20870;SDS011;10595;51.218;3.452;2022-11-04T00:11:03;9.90;;;3.70;;
20870;SDS011;10595;51.218;3.452;2022-11-04T00:13:48;7.67;;;3.97;;
20870;SDS011;10595;51.218;3.452;2022-11-04T00:16:14;8.60;;;3.47;;
20870;SDS011;10595;51.218;3.452;2022-11-04T00:19:00;5.43;;;3.63;;
20870;SDS011;10595;51.218;3.452;2022-11-04T00:21:26;8.13;;;3.80;;
20870;SDS011;10595;51.218;3.452;2022-11-04T00:24:11;7.93;;;3.93;;
20870;SDS011;10595;51.218;3.452;2022-11-04T00:26:56;8.47;;;4.03;;
20870;SDS011;10595;51.218;3.452;2022-11-04T00:29:41;7.63;;;3.50;;
20870;SDS011;10595;51.218;3.452;2022-11-04T00:32:07;11.07;;;4.03;;
20870;SDS011;10595;51.218;3.452;2022-11-04T00:34:52;9.00;;;4.20;;
20870;SDS011;10595;51.218;3.452;2022-11-04T00:37:18;12.33;;;3.93;;
20870;SDS011;10595;51.218;3.452;2022-11-04T00:39:44;7.73;;;4.30;;
20870;SDS011;10595;51.218;3.452;2022-11-04T00:42:10;13.40;;;4.50;;
20870;SDS011;10595;51.218;3.452;2022-11-04T00:44:36;8.70;;;4.37;;
20870;SDS011;10595;51.218;3.452;2022-11-04T00:47:02;8.87;;;4.57;;
20870;SDS011;10595;51.218;3.452;2022-11-04T00:49:28;8.07;;;4.53;;
20870;SDS011;10595;51.218;3.452;2022-11-04T00:51:54;10.03;;;4.23;;
20870;SDS011;10595;51.218;3.452;2022-11-04T00:54:20;10.27;;;4.63;;
20870;SDS011;10595;51.218;3.452;2022-11-04T00:56:46;10.40;;;4.83;;
20870;SDS011;10595;51.218;3.452;2022-11-04T00:59:12;8.33;;;4.97;;
20870;SDS011;10595;51.218;3.452;2022-11-04T01:01:39;12.13;;;4.83;;
20870;SDS011;10595;51.218;3.452;2022-11-04T01:04:05;14.00;;;4.97;;
20870;SDS011;10595;51.218;3.452;2022-11-04T01:06:31;9.03;;;4.23;;
20870;SDS011;10595;51.218;3.452;2022-11-04T01:08:58;8.73;;;4.30;;
20870;SDS011;10595;51.218;3.452;2022-11-04T01:11:25;12.70;;;4.83;;
20870;SDS011;10595;51.218;3.452;2022-11-04T01:13:52;11.37;;;5.00;;
20870;SDS011;10595;51.218;3.452;2022-11-04T01:16:18;8.20;;;4.80;;
20870;SDS011;10595;51.218;3.452;2022-11-04T01:18:44;15.27;;;5.13;;
20870;SDS011;10595;51.218;3.452;2022-11-04T01:21:11;12.53;;;4.83;;
20870;SDS011;10595;51.218;3.452;2022-11-04T01:23:38;10.17;;;4.73;;
20870;SDS011;10595;51.218;3.452;2022-11-04T01:26:05;10.83;;;4.57;;
20870;SDS011;10595;51.218;3.452;2022-11-04T01:28:31;8.63;;;4.80;;
20870;SDS011;10595;51.218;3.452;2022-11-04T01:30:57;9.73;;;4.80;;
20870;SDS011;10595;51.218;3.452;2022-11-04T01:33:23;10.37;;;5.33;;
20870;SDS011;10595;51.218;3.452;2022-11-04T01:35:49;8.40;;;5.00;;
20870;SDS011;10595;51.218;3.452;2022-11-04T01:38:16;12.10;;;4.90;;
20870;SDS011;10595;51.218;3.452;2022-11-04T01:40:42;10.80;;;4.90;;
20870;SDS011;10595;51.218;3.452;2022-11-04T01:43:16;12.03;;;4.67;;
20870;SDS011;10595;51.218;3.452;2022-11-04T01:45:46;8.37;;;4.73;;
20870;SDS011;10595;51.218;3.452;2022-11-04T01:48:18;7.93;;;4.30;;
20870;SDS011;10595;51.218;3.452;2022-11-04T01:50:46;10.00;;;4.47;;
20870;SDS011;10595;51.218;3.452;2022-11-04T01:53:55;10.73;;;5.07;;
20870;SDS011;10595;51.218;3.452;2022-11-04T01:56:04;12.57;;;4.57;;
20870;SDS011;10595;51.218;3.452;2022-11-04T01:58:36;9.37;;;4.27;;
20870;SDS011;10595;51.218;3.452;2022-11-04T02:01:04;9.60;;;3.90;;
20870;SDS011;10595;51.218;3.452;2022-11-04T02:03:31;12.30;;;4.20;;
20870;SDS011;10595;51.218;3.452;2022-11-04T02:05:58;10.23;;;3.77;;
20870;SDS011;10595;51.218;3.452;2022-11-04T02:08:25;9.33;;;4.07;;
20870;SDS011;10595;51.218;3.452;2022-11-04T02:10:53;8.60;;;3.53;;
20870;SDS011;10595;51.218;3.452;2022-11-04T02:13:21;9.03;;;4.13;;
20870;SDS011;10595;51.218;3.452;2022-11-04T02:15:56;11.53;;;4.30;;
20870;SDS011;10595;51.218;3.452;2022-11-04T02:18:42;6.50;;;3.73;;
20870;SDS011;10595;51.218;3.452;2022-11-04T02:21:25;8.37;;;3.70;;
20870;SDS011;10595;51.218;3.452;2022-11-04T02:31:35;14.23;;;3.80;;
20870;SDS011;10595;51.218;3.452;2022-11-04T02:41:55;8.87;;;3.43;;
20870;SDS011;10595;51.218;3.452;2022-11-04T02:44:28;8.47;;;3.07;;
20870;SDS011;10595;51.218;3.452;2022-11-04T02:47:15;8.97;;;3.27;;
20870;SDS011;10595;51.218;3.452;2022-11-04T02:50:02;7.60;;;2.90;;
20870;SDS011;10595;51.218;3.452;2022-11-04T02:55:04;9.40;;;2.70;;
20870;SDS011;10595;51.218;3.452;2022-11-04T02:57:32;13.00;;;3.10;;
20870;SDS011;10595;51.218;3.452;2022-11-04T03:00:00;8.73;;;2.90;;
20870;SDS011;10595;51.218;3.452;2022-11-04T03:02:34;8.27;;;2.80;;
20870;SDS011;10595;51.218;3.452;2022-11-04T03:05:02;8.67;;;3.50;;
20870;SDS011;10595;51.218;3.452;2022-11-04T03:07:31;7.63;;;3.00;;
20870;SDS011;10595;51.218;3.452;2022-11-04T03:09:59;12.13;;;2.90;;
20870;SDS011;10595;51.218;3.452;2022-11-04T03:12:29;8.77;;;3.07;;
20870;SDS011;10595;51.218;3.452;2022-11-04T03:14:59;7.83;;;2.80;;
20870;SDS011;10595;51.218;3.452;2022-11-04T03:19:56;10.17;;;3.00;;
20870;SDS011;10595;51.218;3.452;2022-11-04T03:22:27;11.77;;;3.43;;
20870;SDS011;10595;51.218;3.452;2022-11-04T03:24:54;12.37;;;3.73;;
20870;SDS011;10595;51.218;3.452;2022-11-04T03:29:55;8.77;;;3.30;;
20870;SDS011;10595;51.218;3.452;2022-11-04T03:32:27;12.60;;;3.60;;
20870;SDS011;10595;51.218;3.452;2022-11-04T03:34:56;9.43;;;3.30;;
20870;SDS011;10595;51.218;3.452;2022-11-04T03:37:22;11.47;;;3.60;;
20870;SDS011;10595;51.218;3.452;2022-11-04T03:39:48;9.40;;;3.50;;
20870;SDS011;10595;51.218;3.452;2022-11-04T03:42:14;10.57;;;4.20;;
20870;SDS011;10595;51.218;3.452;2022-11-04T03:44:47;7.47;;;3.40;;
20870;SDS011;10595;51.218;3.452;2022-11-04T03:47:14;14.87;;;3.53;;
20870;SDS011;10595;51.218;3.452;2022-11-04T03:49:40;13.03;;;3.70;;
20870;SDS011;10595;51.218;3.452;2022-11-04T03:52:06;13.00;;;3.80;;
20870;SDS011;10595;51.218;3.452;2022-11-04T03:54:33;15.13;;;4.07;;
20870;SDS011;10595;51.218;3.452;2022-11-04T04:02:14;12.50;;;4.50;;
20870;SDS011;10595;51.218;3.452;2022-11-04T04:04:58;12.87;;;4.27;;
20870;SDS011;10595;51.218;3.452;2022-11-04T04:09:55;13.80;;;4.87;;
20870;SDS011;10595;51.218;3.452;2022-11-04T04:14:50;10.53;;;4.43;;
20870;SDS011;10595;51.218;3.452;2022-11-04T04:17:22;11.33;;;4.40;;
20870;SDS011;10595;51.218;3.452;2022-11-04T04:20:10;13.87;;;4.13;;
20870;SDS011;10595;51.218;3.452;2022-11-04T04:22:41;12.87;;;4.57;;
20870;SDS011;10595;51.218;3.452;2022-11-04T04:25:09;14.50;;;4.83;;
20870;SDS011;10595;51.218;3.452;2022-11-04T04:27:56;12.23;;;4.20;;
20870;SDS011;10595;51.218;3.452;2022-11-04T04:30:22;13.30;;;4.87;;
20870;SDS011;10595;51.218;3.452;2022-11-04T04:32:49;20.63;;;4.80;;
20870;SDS011;10595;51.218;3.452;2022-11-04T04:35:16;12.77;;;4.80;;
20870;SDS011;10595;51.218;3.452;2022-11-04T04:38:05;15.00;;;5.27;;
20870;SDS011;10595;51.218;3.452;2022-11-04T04:40:52;11.87;;;4.60;;
20870;SDS011;10595;51.218;3.452;2022-11-04T04:43:41;14.13;;;4.00;;
20870;SDS011;10595;51.218;3.452;2022-11-04T04:46:27;10.50;;;4.77;;
20870;SDS011;10595;51.218;3.452;2022-11-04T04:48:53;12.87;;;5.40;;
20870;SDS011;10595;51.218;3.452;2022-11-04T04:51:20;11.17;;;4.40;;
20870;SDS011;10595;51.218;3.452;2022-11-04T04:53:46;12.77;;;5.10;;
20870;SDS011;10595;51.218;3.452;2022-11-04T04:56:12;14.27;;;4.87;;
20870;SDS011;10595;51.218;3.452;2022-11-04T04:58:38;11.80;;;5.03;;
20870;SDS011;10595;51.218;3.452;2022-11-04T05:01:04;13.47;;;4.50;;
20870;SDS011;10595;51.218;3.452;2022-11-04T05:03:30;12.90;;;4.80;;
20870;SDS011;10595;51.218;3.452;2022-11-04T05:05:58;11.13;;;4.67;;
20870;SDS011;10595;51.218;3.452;2022-11-04T05:08:24;13.80;;;4.53;;
20870;SDS011;10595;51.218;3.452;2022-11-04T05:10:50;12.73;;;5.30;;
20870;SDS011;10595;51.218;3.452;2022-11-04T05:13:16;16.07;;;5.20;;
20870;SDS011;10595;51.218;3.452;2022-11-04T05:15:52;10.80;;;4.80;;
20870;SDS011;10595;51.218;3.452;2022-11-04T05:18:18;14.53;;;5.50;;
20870;SDS011;10595;51.218;3.452;2022-11-04T05:20:44;16.57;;;4.97;;
20870;SDS011;10595;51.218;3.452;2022-11-04T05:23:10;16.00;;;4.90;;
20870;SDS011;10595;51.218;3.452;2022-11-04T05:25:38;18.60;;;4.67;;
20870;SDS011;10595;51.218;3.452;2022-11-04T05:28:04;19.57;;;5.43;;
20870;SDS011;10595;51.218;3.452;2022-11-04T05:30:30;18.90;;;5.23;;
20870;SDS011;10595;51.218;3.452;2022-11-04T05:32:56;18.10;;;5.40;;
20870;SDS011;10595;51.218;3.452;2022-11-04T05:35:22;13.53;;;5.00;;
20870;SDS011;10595;51.218;3.452;2022-11-04T05:37:48;17.43;;;4.90;;
20870;SDS011;10595;51.218;3.452;2022-11-04T05:40:15;17.43;;;5.23;;
20870;SDS011;10595;51.218;3.452;2022-11-04T05:42:41;13.67;;;4.90;;
20870;SDS011;10595;51.218;3.452;2022-11-04T05:45:07;17.23;;;5.30;;
20870;SDS011;10595;51.218;3.452;2022-11-04T05:47:33;12.33;;;5.07;;
20870;SDS011;10595;51.218;3.452;2022-11-04T05:49:59;19.40;;;5.67;;
20870;SDS011;10595;51.218;3.452;2022-11-04T05:52:25;10.07;;;4.73;;
20870;SDS011;10595;51.218;3.452;2022-11-04T05:54:51;15.03;;;5.50;;
20870;SDS011;10595;51.218;3.452;2022-11-04T05:57:17;12.53;;;5.50;;
20870;SDS011;10595;51.218;3.452;2022-11-04T05:59:43;12.33;;;5.30;;
20870;SDS011;10595;51.218;3.452;2022-11-04T06:02:09;12.03;;;5.27;;
20870;SDS011;10595;51.218;3.452;2022-11-04T06:04:35;15.80;;;5.03;;
20870;SDS011;10595;51.218;3.452;2022-11-04T06:07:01;12.30;;;4.90;;
20870;SDS011;10595;51.218;3.452;2022-11-04T06:09:27;15.13;;;5.70;;
20870;SDS011;10595;51.218;3.452;2022-11-04T06:12:10;10.77;;;5.57;;
20870;SDS011;10595;51.218;3.452;2022-11-04T06:14:36;16.87;;;6.90;;
20870;SDS011;10595;51.218;3.452;2022-11-04T06:17:02;13.47;;;6.00;;
20870;SDS011;10595;51.218;3.452;2022-11-04T06:19:28;22.03;;;10.17;;
20870;SDS011;10595;51.218;3.452;2022-11-04T06:21:55;21.80;;;9.80;;
20870;SDS011;10595;51.218;3.452;2022-11-04T06:24:21;18.97;;;8.13;;
20870;SDS011;10595;51.218;3.452;2022-11-04T06:26:47;16.73;;;7.73;;
20870;SDS011;10595;51.218;3.452;2022-11-04T06:29:13;19.60;;;8.03;;
20870;SDS011;10595;51.218;3.452;2022-11-04T06:31:39;18.23;;;8.10;;
20870;SDS011;10595;51.218;3.452;2022-11-04T06:34:05;13.37;;;6.73;;
20870;SDS011;10595;51.218;3.452;2022-11-04T06:36:31;12.40;;;6.60;;
20870;SDS011;10595;51.218;3.452;2022-11-04T06:38:57;14.53;;;6.00;;
20870;SDS011;10595;51.218;3.452;2022-11-04T06:41:23;12.37;;;5.47;;
20870;SDS011;10595;51.218;3.452;2022-11-04T06:43:49;14.33;;;5.37;;
20870;SDS011;10595;51.218;3.452;2022-11-04T06:46:25;16.77;;;6.20;;
20870;SDS011;10595;51.218;3.452;2022-11-04T06:48:52;17.33;;;6.13;;
20870;SDS011;10595;51.218;3.452;2022-11-04T06:51:18;13.27;;;5.80;;
20870;SDS011;10595;51.218;3.452;2022-11-04T06:53:44;18.70;;;6.63;;
20870;SDS011;10595;51.218;3.452;2022-11-04T06:56:10;15.60;;;6.10;;
20870;SDS011;10595;51.218;3.452;2022-11-04T06:58:36;21.20;;;6.53;;
20870;SDS011;10595;51.218;3.452;2022-11-04T07:01:02;20.50;;;6.57;;
20870;SDS011;10595;51.218;3.452;2022-11-04T07:03:28;19.93;;;7.33;;
20870;SDS011;10595;51.218;3.452;2022-11-04T07:05:54;23.27;;;8.07;;
20870;SDS011;10595;51.218;3.452;2022-11-04T07:08:20;18.20;;;7.80;;
20870;SDS011;10595;51.218;3.452;2022-11-04T07:10:46;17.10;;;7.33;;
20870;SDS011;10595;51.218;3.452;2022-11-04T07:13:12;18.37;;;7.40;;
20870;SDS011;10595;51.218;3.452;2022-11-04T07:15:38;20.20;;;7.97;;
20870;SDS011;10595;51.218;3.452;2022-11-04T07:18:04;17.93;;;7.50;;
20870;SDS011;10595;51.218;3.452;2022-11-04T07:20:31;18.50;;;6.57;;
20870;SDS011;10595;51.218;3.452;2022-11-04T07:22:57;17.27;;;7.10;;
20870;SDS011;10595;51.218;3.452;2022-11-04T07:25:24;19.27;;;7.30;;
20870;SDS011;10595;51.218;3.452;2022-11-04T07:27:50;17.73;;;6.77;;
20870;SDS011;10595;51.218;3.452;2022-11-04T07:30:16;17.30;;;7.27;;
20870;SDS011;10595;51.218;3.452;2022-11-04T07:32:44;14.27;;;6.77;;
20870;SDS011;10595;51.218;3.452;2022-11-04T07:35:10;19.00;;;7.33;;
20870;SDS011;10595;51.218;3.452;2022-11-04T07:37:36;15.80;;;6.87;;
20870;SDS011;10595;51.218;3.452;2022-11-04T07:40:03;19.57;;;6.90;;
20870;SDS011;10595;51.218;3.452;2022-11-04T07:42:29;16.20;;;7.33;;
20870;SDS011;10595;51.218;3.452;2022-11-04T07:44:55;16.57;;;7.27;;
20870;SDS011;10595;51.218;3.452;2022-11-04T07:47:21;18.90;;;7.33;;
20870;SDS011;10595;51.218;3.452;2022-11-04T07:49:47;18.77;;;7.40;;
20870;SDS011;10595;51.218;3.452;2022-11-04T07:52:13;15.43;;;7.67;;
20870;SDS011;10595;51.218;3.452;2022-11-04T07:54:39;15.70;;;7.50;;
20870;SDS011;10595;51.218;3.452;2022-11-04T07:57:05;13.27;;;8.00;;
20870;SDS011;10595;51.218;3.452;2022-11-04T07:59:31;14.73;;;7.10;;
20870;SDS011;10595;51.218;3.452;2022-11-04T08:01:57;15.03;;;7.20;;
20870;SDS011;10595;51.218;3.452;2022-11-04T08:04:23;14.47;;;7.90;;
20870;SDS011;10595;51.218;3.452;2022-11-04T08:06:50;14.57;;;7.20;;
20870;SDS011;10595;51.218;3.452;2022-11-04T08:09:16;21.47;;;7.90;;
20870;SDS011;10595;51.218;3.452;2022-11-04T08:11:42;16.80;;;7.70;;
20870;SDS011;10595;51.218;3.452;2022-11-04T08:14:08;16.33;;;7.33;;
20870;SDS011;10595;51.218;3.452;2022-11-04T08:16:34;19.10;;;8.70;;
20870;SDS011;10595;51.218;3.452;2022-11-04T08:19:00;16.13;;;8.60;;
20870;SDS011;10595;51.218;3.452;2022-11-04T08:21:29;17.07;;;7.67;;
20870;SDS011;10595;51.218;3.452;2022-11-04T08:23:56;19.00;;;8.00;;
20870;SDS011;10595;51.218;3.452;2022-11-04T08:26:22;19.30;;;8.23;;
20870;SDS011;10595;51.218;3.452;2022-11-04T08:28:49;16.17;;;8.57;;
20870;SDS011;10595;51.218;3.452;2022-11-04T08:33:41;16.13;;;9.27;;
20870;SDS011;10595;51.218;3.452;2022-11-04T08:36:13;22.73;;;9.43;;
20870;SDS011;10595;51.218;3.452;2022-11-04T08:38:39;24.17;;;10.70;;
20870;SDS011;10595;51.218;3.452;2022-11-04T08:41:06;19.13;;;9.53;;
20870;SDS011;10595;51.218;3.452;2022-11-04T08:43:32;17.53;;;9.60;;
20870;SDS011;10595;51.218;3.452;2022-11-04T08:45:58;20.10;;;9.17;;
20870;SDS011;10595;51.218;3.452;2022-11-04T08:48:24;19.83;;;9.17;;
20870;SDS011;10595;51.218;3.452;2022-11-04T08:50:52;18.17;;;8.80;;
20870;SDS011;10595;51.218;3.452;2022-11-04T08:53:18;21.30;;;9.30;;
20870;SDS011;10595;51.218;3.452;2022-11-04T08:55:44;21.87;;;9.20;;
20870;SDS011;10595;51.218;3.452;2022-11-04T08:58:10;18.50;;;9.00;;
20870;SDS011;10595;51.218;3.452;2022-11-04T09:00:37;21.10;;;9.50;;
20870;SDS011;10595;51.218;3.452;2022-11-04T09:03:03;16.20;;;9.03;;
20870;SDS011;10595;51.218;3.452;2022-11-04T09:05:30;17.37;;;9.20;;
20870;SDS011;10595;51.218;3.452;2022-11-04T09:07:56;23.73;;;11.27;;
20870;SDS011;10595;51.218;3.452;2022-11-04T09:10:22;25.13;;;12.10;;
20870;SDS011;10595;51.218;3.452;2022-11-04T09:12:48;23.73;;;12.10;;
20870;SDS011;10595;51.218;3.452;2022-11-04T09:15:14;16.43;;;8.50;;
20870;SDS011;10595;51.218;3.452;2022-11-04T09:17:40;16.90;;;7.33;;
20870;SDS011;10595;51.218;3.452;2022-11-04T09:20:08;17.07;;;7.50;;
20870;SDS011;10595;51.218;3.452;2022-11-04T09:22:34;15.90;;;8.10;;
20870;SDS011;10595;51.218;3.452;2022-11-04T09:25:00;17.67;;;8.20;;
20870;SDS011;10595;51.218;3.452;2022-11-04T09:27:26;14.63;;;7.90;;
20870;SDS011;10595;51.218;3.452;2022-11-04T09:29:52;13.07;;;6.70;;
20870;SDS011;10595;51.218;3.452;2022-11-04T09:32:18;15.33;;;6.80;;
20870;SDS011;10595;51.218;3.452;2022-11-04T09:34:44;13.20;;;7.40;;
20870;SDS011;10595;51.218;3.452;2022-11-04T09:37:10;14.23;;;7.00;;
20870;SDS011;10595;51.218;3.452;2022-11-04T09:39:36;14.93;;;7.33;;
20870;SDS011;10595;51.218;3.452;2022-11-04T09:47:03;13.97;;;8.50;;
20870;SDS011;10595;51.218;3.452;2022-11-04T09:49:32;16.77;;;7.97;;
20870;SDS011;10595;51.218;3.452;2022-11-04T09:51:59;15.23;;;8.10;;
20870;SDS011;10595;51.218;3.452;2022-11-04T09:57:15;22.33;;;10.60;;
20870;SDS011;10595;51.218;3.452;2022-11-04T09:59:42;18.37;;;9.20;;
20870;SDS011;10595;51.218;3.452;2022-11-04T10:07:57;14.30;;;8.60;;
20870;SDS011;10595;51.218;3.452;2022-11-04T10:22:58;15.57;;;7.67;;
20870;SDS011;10595;51.218;3.452;2022-11-04T10:25:29;14.20;;;7.60;;
20870;SDS011;10595;51.218;3.452;2022-11-04T10:27:56;14.87;;;7.67;;
20870;SDS011;10595;51.218;3.452;2022-11-04T10:30:24;11.73;;;7.00;;
20870;SDS011;10595;51.218;3.452;2022-11-04T10:35:47;16.03;;;7.50;;
20870;SDS011;10595;51.218;3.452;2022-11-04T10:40:41;9.47;;;6.53;;
20870;SDS011;10595;51.218;3.452;2022-11-04T10:43:12;12.63;;;6.93;;
20870;SDS011;10595;51.218;3.452;2022-11-04T10:46:00;11.13;;;6.70;;
20870;SDS011;10595;51.218;3.452;2022-11-04T10:48:29;11.60;;;6.70;;
20870;SDS011;10595;51.218;3.452;2022-11-04T10:50:57;9.97;;;7.00;;
20870;SDS011;10595;51.218;3.452;2022-11-04T10:53:25;10.70;;;6.13;;
20870;SDS011;10595;51.218;3.452;2022-11-04T10:56:00;9.60;;;6.50;;
20870;SDS011;10595;51.218;3.452;2022-11-04T10:58:31;13.03;;;6.57;;
20870;SDS011;10595;51.218;3.452;2022-11-04T11:00:57;12.23;;;6.60;;
20870;SDS011;10595;51.218;3.452;2022-11-04T11:03:41;11.43;;;5.57;;
20870;SDS011;10595;51.218;3.452;2022-11-04T11:06:23;11.47;;;6.03;;
20870;SDS011;10595;51.218;3.452;2022-11-04T11:08:50;11.30;;;5.67;;
20870;SDS011;10595;51.218;3.452;2022-11-04T11:11:18;10.33;;;5.63;;
20870;SDS011;10595;51.218;3.452;2022-11-04T11:13:59;8.83;;;5.47;;
20870;SDS011;10595;51.218;3.452;2022-11-04T11:16:26;12.17;;;5.70;;
20870;SDS011;10595;51.218;3.452;2022-11-04T11:21:41;7.40;;;4.50;;
20870;SDS011;10595;51.218;3.452;2022-11-04T11:24:21;8.43;;;4.23;;
20870;SDS011;10595;51.218;3.452;2022-11-04T11:27:09;7.97;;;4.07;;
20870;SDS011;10595;51.218;3.452;2022-11-04T11:29:35;7.27;;;4.30;;
20870;SDS011;10595;51.218;3.452;2022-11-04T11:32:16;8.47;;;4.00;;
20870;SDS011;10595;51.218;3.452;2022-11-04T11:34:43;4.30;;;3.10;;
20870;SDS011;10595;51.218;3.452;2022-11-04T11:37:17;5.30;;;3.27;;
20870;SDS011;10595;51.218;3.452;2022-11-04T11:39:44;7.80;;;3.50;;
20870;SDS011;10595;51.218;3.452;2022-11-04T11:42:11;7.30;;;3.20;;
20870;SDS011;10595;51.218;3.452;2022-11-04T11:44:50;6.30;;;3.77;;
20870;SDS011;10595;51.218;3.452;2022-11-04T11:52:37;3.07;;;1.53;;
20870;SDS011;10595;51.218;3.452;2022-11-04T12:00:04;1.37;;;0.63;;
20870;SDS011;10595;51.218;3.452;2022-11-04T12:04:59;1.30;;;0.73;;
20870;SDS011;10595;51.218;3.452;2022-11-04T12:07:38;2.03;;;0.70;;
20870;SDS011;10595;51.218;3.452;2022-11-04T12:17:46;3.40;;;0.73;;
20870;SDS011;10595;51.218;3.452;2022-11-04T12:23:15;2.00;;;0.60;;
20870;SDS011;10595;51.218;3.452;2022-11-04T12:30:52;1.63;;;1.00;;
20870;SDS011;10595;51.218;3.452;2022-11-04T12:33:35;3.73;;;0.77;;
20870;SDS011;10595;51.218;3.452;2022-11-04T12:36:14;6.47;;;0.80;;
20870;SDS011;10595;51.218;3.452;2022-11-04T12:38:52;4.27;;;0.80;;
20870;SDS011;10595;51.218;3.452;2022-11-04T12:46:31;3.40;;;0.97;;
20870;SDS011;10595;51.218;3.452;2022-11-04T12:49:03;1.73;;;0.80;;
20870;SDS011;10595;51.218;3.452;2022-11-04T12:51:36;1.47;;;0.40;;
20870;SDS011;10595;51.218;3.452;2022-11-04T12:54:18;3.30;;;0.53;;
20870;SDS011;10595;51.218;3.452;2022-11-04T12:56:46;2.13;;;0.50;;
20870;SDS011;10595;51.218;3.452;2022-11-04T13:02:10;4.47;;;0.80;;
20870;SDS011;10595;51.218;3.452;2022-11-04T13:04:39;1.63;;;0.60;;
20870;SDS011;10595;51.218;3.452;2022-11-04T13:07:18;4.50;;;0.87;;
20870;SDS011;10595;51.218;3.452;2022-11-04T13:09:49;3.53;;;0.90;;
20870;SDS011;10595;51.218;3.452;2022-11-04T13:12:21;3.17;;;0.67;;
20870;SDS011;10595;51.218;3.452;2022-11-04T13:14:50;4.00;;;0.63;;
20870;SDS011;10595;51.218;3.452;2022-11-04T13:17:18;3.33;;;0.70;;
20870;SDS011;10595;51.218;3.452;2022-11-04T13:19:50;2.93;;;0.67;;
20870;SDS011;10595;51.218;3.452;2022-11-04T13:22:19;2.37;;;0.60;;
20870;SDS011;10595;51.218;3.452;2022-11-04T13:27:38;4.93;;;0.97;;
20870;SDS011;10595;51.218;3.452;2022-11-04T13:32:39;4.10;;;0.80;;
20870;SDS011;10595;51.218;3.452;2022-11-04T13:35:11;5.40;;;0.87;;
20870;SDS011;10595;51.218;3.452;2022-11-04T13:37:44;3.93;;;0.70;;
20870;SDS011;10595;51.218;3.452;2022-11-04T13:40:14;3.53;;;0.50;;
20870;SDS011;10595;51.218;3.452;2022-11-04T13:45:12;4.40;;;0.70;;
20870;SDS011;10595;51.218;3.452;2022-11-04T13:47:43;4.40;;;0.80;;
20870;SDS011;10595;51.218;3.452;2022-11-04T13:52:55;3.50;;;0.70;;
20870;SDS011;10595;51.218;3.452;2022-11-04T13:55:21;4.87;;;0.87;;
20870;SDS011;10595;51.218;3.452;2022-11-04T13:57:51;3.50;;;0.97;;
20870;SDS011;10595;51.218;3.452;2022-11-04T14:00:20;5.47;;;0.87;;
20870;SDS011;10595;51.218;3.452;2022-11-04T14:02:56;4.47;;;0.90;;
20870;SDS011;10595;51.218;3.452;2022-11-04T14:15:58;3.67;;;1.00;;
20870;SDS011;10595;51.218;3.452;2022-11-04T14:18:25;7.07;;;1.40;;
20870;SDS011;10595;51.218;3.452;2022-11-04T14:23:38;15.67;;;4.80;;
20870;SDS011;10595;51.218;3.452;2022-11-04T14:26:08;5.30;;;1.07;;
20870;SDS011;10595;51.218;3.452;2022-11-04T14:28:35;6.27;;;1.63;;
20870;SDS011;10595;51.218;3.452;2022-11-04T14:31:02;7.57;;;1.17;;
20870;SDS011;10595;51.218;3.452;2022-11-04T14:38:39;9.20;;;3.53;;
20870;SDS011;10595;51.218;3.452;2022-11-04T14:43:50;7.50;;;2.50;;
20870;SDS011;10595;51.218;3.452;2022-11-04T14:46:19;7.33;;;2.70;;
20870;SDS011;10595;51.218;3.452;2022-11-04T14:48:47;8.57;;;2.63;;
20870;SDS011;10595;51.218;3.452;2022-11-04T14:51:26;6.77;;;2.10;;
20870;SDS011;10595;51.218;3.452;2022-11-04T14:53:54;6.50;;;1.47;;
20870;SDS011;10595;51.218;3.452;2022-11-04T14:56:21;9.47;;;1.63;;
20870;SDS011;10595;51.218;3.452;2022-11-04T14:58:54;6.87;;;1.63;;
20870;SDS011;10595;51.218;3.452;2022-11-04T15:01:21;8.00;;;1.80;;
20870;SDS011;10595;51.218;3.452;2022-11-04T15:03:48;9.03;;;1.50;;
20870;SDS011;10595;51.218;3.452;2022-11-04T15:06:22;10.97;;;1.40;;
20870;SDS011;10595;51.218;3.452;2022-11-04T15:08:48;8.57;;;1.67;;
20870;SDS011;10595;51.218;3.452;2022-11-04T15:11:22;12.03;;;1.77;;
20870;SDS011;10595;51.218;3.452;2022-11-04T15:14:12;5.47;;;1.67;;
20870;SDS011;10595;51.218;3.452;2022-11-04T15:16:39;7.23;;;1.50;;
20870;SDS011;10595;51.218;3.452;2022-11-04T15:19:07;6.27;;;1.50;;
20870;SDS011;10595;51.218;3.452;2022-11-04T15:21:38;11.07;;;1.50;;
20870;SDS011;10595;51.218;3.452;2022-11-04T15:24:04;11.67;;;1.70;;
20870;SDS011;10595;51.218;3.452;2022-11-04T15:26:31;8.97;;;1.53;;
20870;SDS011;10595;51.218;3.452;2022-11-04T15:29:06;10.97;;;1.80;;
20870;SDS011;10595;51.218;3.452;2022-11-04T15:31:33;6.87;;;1.33;;
20870;SDS011;10595;51.218;3.452;2022-11-04T15:34:00;6.90;;;1.50;;
20870;SDS011;10595;51.218;3.452;2022-11-04T15:36:27;4.87;;;1.20;;
20870;SDS011;10595;51.218;3.452;2022-11-04T15:38:57;8.97;;;1.37;;
20870;SDS011;10595;51.218;3.452;2022-11-04T15:41:25;7.10;;;1.27;;
20870;SDS011;10595;51.218;3.452;2022-11-04T15:44:18;11.67;;;1.57;;
20870;SDS011;10595;51.218;3.452;2022-11-04T15:46:46;6.53;;;1.40;;
20870;SDS011;10595;51.218;3.452;2022-11-04T15:49:17;5.53;;;1.20;;
20870;SDS011;10595;51.218;3.452;2022-11-04T15:51:44;9.33;;;1.67;;
20870;SDS011;10595;51.218;3.452;2022-11-04T15:56:57;8.60;;;2.27;;
20870;SDS011;10595;51.218;3.452;2022-11-04T15:59:29;7.03;;;1.43;;
20870;SDS011;10595;51.218;3.452;2022-11-04T16:01:56;7.13;;;1.70;;
20870;SDS011;10595;51.218;3.452;2022-11-04T16:04:23;8.77;;;1.53;;
20870;SDS011;10595;51.218;3.452;2022-11-04T16:09:27;9.50;;;1.90;;
20870;SDS011;10595;51.218;3.452;2022-11-04T16:12:07;7.40;;;2.50;;
20870;SDS011;10595;51.218;3.452;2022-11-04T16:14:33;12.27;;;2.63;;
20870;SDS011;10595;51.218;3.452;2022-11-04T16:17:00;9.53;;;2.90;;
20870;SDS011;10595;51.218;3.452;2022-11-04T16:19:27;7.57;;;2.53;;
20870;SDS011;10595;51.218;3.452;2022-11-04T16:21:57;11.27;;;2.93;;
20870;SDS011;10595;51.218;3.452;2022-11-04T16:24:25;13.83;;;3.90;;
20870;SDS011;10595;51.218;3.452;2022-11-04T16:26:55;11.07;;;3.00;;
20870;SDS011;10595;51.218;3.452;2022-11-04T16:29:26;11.20;;;2.23;;
20870;SDS011;10595;51.218;3.452;2022-11-04T16:34:38;6.47;;;2.00;;
20870;SDS011;10595;51.218;3.452;2022-11-04T16:37:04;12.23;;;2.63;;
20870;SDS011;10595;51.218;3.452;2022-11-04T16:39:30;6.53;;;1.90;;
20870;SDS011;10595;51.218;3.452;2022-11-04T16:41:57;6.30;;;1.90;;
20870;SDS011;10595;51.218;3.452;2022-11-04T16:44:23;8.93;;;2.60;;
20870;SDS011;10595;51.218;3.452;2022-11-04T16:46:50;10.80;;;2.70;;
20870;SDS011;10595;51.218;3.452;2022-11-04T16:49:17;5.87;;;2.10;;
20870;SDS011;10595;51.218;3.452;2022-11-04T16:51:44;11.33;;;3.00;;
20870;SDS011;10595;51.218;3.452;2022-11-04T16:54:10;12.20;;;3.10;;
20870;SDS011;10595;51.218;3.452;2022-11-04T16:56:36;16.20;;;3.60;;
20870;SDS011;10595;51.218;3.452;2022-11-04T16:59:03;10.77;;;3.20;;
20870;SDS011;10595;51.218;3.452;2022-11-04T17:01:29;10.67;;;3.60;;
20870;SDS011;10595;51.218;3.452;2022-11-04T17:03:56;14.10;;;3.53;;
20870;SDS011;10595;51.218;3.452;2022-11-04T17:06:22;12.37;;;3.50;;
20870;SDS011;10595;51.218;3.452;2022-11-04T17:08:49;14.07;;;3.93;;
20870;SDS011;10595;51.218;3.452;2022-11-04T17:11:15;15.60;;;3.37;;
20870;SDS011;10595;51.218;3.452;2022-11-04T17:13:42;12.97;;;4.33;;
20870;SDS011;10595;51.218;3.452;2022-11-04T17:16:10;18.73;;;6.23;;